createdAt,value
2019-01-13T00:02:03.975Z,0.83
2019-01-13T00:04:14.898Z,0.90
2019-01-13T00:06:25.705Z,0.80
2019-01-13T00:08:36.518Z,1.00
2019-01-13T00:10:47.320Z,1.10
2019-01-13T00:12:58.128Z,0.70
2019-01-13T00:15:50.566Z,0.50
2019-01-13T00:18:01.402Z,0.60
2019-01-13T00:20:12.411Z,0.60
2019-01-13T00:22:23.234Z,0.77
2019-01-13T00:24:34.164Z,0.50
2019-01-13T00:26:44.978Z,0.80
2019-01-13T00:29:15.684Z,0.70
2019-01-13T00:31:26.497Z,0.67
2019-01-13T00:33:37.338Z,0.70
2019-01-13T00:35:48.142Z,0.60
2019-01-13T00:37:58.975Z,0.70
2019-01-13T00:40:51.460Z,0.60
2019-01-13T00:43:02.360Z,0.73
2019-01-13T00:45:54.843Z,0.67
2019-01-13T00:48:05.635Z,0.53
2019-01-13T00:50:16.444Z,0.60
2019-01-13T00:52:27.233Z,0.60
2019-01-13T00:54:38.025Z,0.63
2019-01-13T00:56:48.854Z,0.60
2019-01-13T00:58:59.750Z,0.50
2019-01-13T01:03:29.450Z,0.67
2019-01-13T01:05:40.338Z,0.80
2019-01-13T01:07:51.268Z,0.57
2019-01-13T01:10:43.721Z,0.60
2019-01-13T01:12:54.516Z,0.63
2019-01-13T01:15:46.997Z,0.60
2019-01-13T01:17:57.783Z,0.43
2019-01-13T01:20:50.249Z,0.60
2019-01-13T01:23:01.071Z,0.50
2019-01-13T01:25:53.504Z,0.60
2019-01-13T01:28:04.419Z,0.60
2019-01-13T01:30:56.868Z,0.67
2019-01-13T01:33:07.693Z,0.50
2019-01-13T01:35:18.483Z,0.50
2019-01-13T01:37:29.302Z,0.70
2019-01-13T01:39:40.165Z,0.60
2019-01-13T01:41:51.102Z,0.50
2019-01-13T01:44:01.988Z,0.50
2019-01-13T01:46:12.786Z,0.67
2019-01-13T01:48:23.629Z,0.70
2019-01-13T01:50:34.422Z,0.60
2019-01-13T01:53:26.916Z,0.70
2019-01-13T01:55:37.711Z,0.90
2019-01-13T01:57:48.510Z,0.77
2019-01-13T01:59:59.353Z,0.90
2019-01-13T02:02:10.146Z,0.70
2019-01-13T02:04:20.959Z,0.77
2019-01-13T02:06:31.756Z,0.70
2019-01-13T02:08:42.575Z,0.87
2019-01-13T02:10:53.368Z,0.97
2019-01-13T02:13:04.312Z,0.90
2019-01-13T02:15:56.770Z,1.00
2019-01-13T02:18:07.704Z,1.03
2019-01-13T02:21:00.170Z,1.30
2019-01-13T02:23:11.089Z,1.03
2019-01-13T02:26:03.558Z,0.93
2019-01-13T02:28:14.389Z,0.93
2019-01-13T02:30:25.282Z,1.00
2019-01-13T02:32:36.083Z,1.00
2019-01-13T02:34:46.905Z,1.57
2019-01-13T02:37:17.604Z,1.70
2019-01-13T02:39:28.421Z,1.50
2019-01-13T02:41:39.253Z,1.77
2019-01-13T02:43:50.058Z,1.80
2019-01-13T02:46:00.865Z,2.10
2019-01-13T02:48:11.650Z,2.37
2019-01-13T02:50:22.467Z,2.40
2019-01-13T02:52:33.263Z,2.17
2019-01-13T02:54:44.067Z,2.50
2019-01-13T02:56:54.911Z,1.60
2019-01-13T02:59:05.716Z,1.60
2019-01-13T03:01:16.540Z,1.70
2019-01-13T03:03:27.403Z,2.10
2019-01-13T03:05:38.240Z,1.53
2019-01-13T03:07:49.030Z,2.73
2019-01-13T03:10:41.504Z,2.40
2019-01-13T03:12:52.397Z,3.27
2019-01-13T03:15:44.856Z,3.30
2019-01-13T03:17:55.652Z,3.37
2019-01-13T03:20:48.110Z,2.83
2019-01-13T03:22:59.033Z,3.70
2019-01-13T03:25:51.496Z,3.73
2019-01-13T03:28:02.304Z,4.40
2019-01-13T03:30:54.787Z,4.50
2019-01-13T03:33:05.588Z,4.20
2019-01-13T03:35:58.061Z,4.80
2019-01-13T03:38:08.869Z,5.53
2019-01-13T03:41:01.334Z,4.50
2019-01-13T03:43:12.164Z,4.80
2019-01-13T03:45:23.054Z,4.83
2019-01-13T03:47:33.891Z,4.97
2019-01-13T03:49:44.674Z,4.60
2019-01-13T03:51:55.471Z,4.97
2019-01-13T03:54:06.288Z,4.90
2019-01-13T03:56:17.093Z,5.17
2019-01-13T03:58:27.910Z,4.97
2019-01-13T04:00:38.801Z,5.10
2019-01-13T04:02:49.728Z,5.50
2019-01-13T04:05:00.542Z,5.60
2019-01-13T04:07:11.332Z,5.50
2019-01-13T04:09:22.154Z,5.33
2019-01-13T04:11:32.943Z,5.10
2019-01-13T04:13:43.755Z,5.43
2019-01-13T04:16:36.200Z,4.93
2019-01-13T04:18:47.014Z,5.40
2019-01-13T04:20:57.908Z,5.27
2019-01-13T04:23:08.728Z,5.13
2019-01-13T04:25:19.512Z,4.90
2019-01-13T04:27:30.311Z,5.07
2019-01-13T04:29:41.130Z,5.13
2019-01-13T04:34:44.196Z,4.77
2019-01-13T04:36:55.001Z,5.23
2019-01-13T04:39:05.931Z,5.40
2019-01-13T04:44:08.984Z,4.63
2019-01-13T04:46:19.785Z,4.60
2019-01-13T04:48:30.583Z,4.80
2019-01-13T04:50:41.409Z,4.87
2019-01-13T04:52:52.294Z,4.87
2019-01-13T04:55:44.758Z,4.83
2019-01-13T04:57:55.647Z,3.97
2019-01-13T05:00:48.135Z,4.80
2019-01-13T05:02:58.927Z,4.47
2019-01-13T05:05:09.848Z,4.57
2019-01-13T05:09:53.022Z,4.80
2019-01-13T05:12:03.841Z,5.07
2019-01-13T05:14:14.654Z,4.80
2019-01-13T05:16:25.469Z,4.77
2019-01-13T05:18:36.258Z,4.73
2019-01-13T05:20:47.093Z,4.63
2019-01-13T05:22:57.986Z,4.53
2019-01-13T05:25:08.898Z,4.63
2019-01-13T05:27:19.708Z,4.67
2019-01-13T05:29:30.501Z,4.63
2019-01-13T05:31:42.188Z,5.13
2019-01-13T05:33:54.024Z,4.83
2019-01-13T05:36:04.845Z,5.70
2019-01-13T05:38:15.635Z,4.70
2019-01-13T05:40:26.461Z,4.90
2019-01-13T05:42:37.283Z,5.40
2019-01-13T05:44:48.079Z,5.00
2019-01-13T05:46:58.895Z,4.30
2019-01-13T05:49:09.684Z,5.03
2019-01-13T05:51:20.558Z,4.83
2019-01-13T05:53:31.313Z,4.37
2019-01-13T05:55:42.207Z,3.83
2019-01-13T05:57:53.039Z,4.30
2019-01-13T06:00:45.489Z,4.33
2019-01-13T06:02:56.299Z,4.17
2019-01-13T06:05:07.220Z,4.13
2019-01-13T06:07:18.041Z,3.57
2019-01-13T06:09:28.846Z,3.60
2019-01-13T06:11:39.681Z,3.60
2019-01-13T06:13:50.478Z,3.43
2019-01-13T06:16:01.277Z,3.70
2019-01-13T06:18:12.100Z,3.73
2019-01-13T06:20:22.884Z,3.30
2019-01-13T06:22:33.693Z,3.57
2019-01-13T06:24:44.508Z,3.13
2019-01-13T06:26:55.327Z,2.90
2019-01-13T06:29:06.138Z,3.13
2019-01-13T06:31:16.925Z,3.00
2019-01-13T06:33:27.764Z,2.50
2019-01-13T06:35:38.680Z,2.40
2019-01-13T06:37:49.585Z,2.73
2019-01-13T06:40:00.422Z,2.80
2019-01-13T06:42:11.268Z,2.70
2019-01-13T06:44:22.050Z,2.70
2019-01-13T06:46:32.939Z,2.50
2019-01-13T06:48:43.790Z,2.17
2019-01-13T06:50:54.581Z,2.30
2019-01-13T06:53:05.376Z,2.00
2019-01-13T06:55:16.213Z,2.40
2019-01-13T06:57:27.023Z,2.23
2019-01-13T06:59:37.841Z,2.10
2019-01-13T07:01:48.649Z,1.97
2019-01-13T07:03:59.461Z,2.07
2019-01-13T07:06:10.270Z,1.70
2019-01-13T07:08:21.093Z,1.80
2019-01-13T07:10:31.916Z,2.10
2019-01-13T07:12:42.714Z,1.77
2019-01-13T07:14:54.500Z,1.50
2019-01-13T07:17:06.208Z,1.77
2019-01-13T07:19:17.002Z,1.90
2019-01-13T07:21:27.814Z,1.53
2019-01-13T07:23:38.622Z,1.60
2019-01-13T07:25:49.461Z,1.73
2019-01-13T07:28:00.255Z,1.70
2019-01-13T07:30:52.718Z,1.43
2019-01-13T07:33:03.612Z,1.60
2019-01-13T07:35:14.433Z,1.57
2019-01-13T07:37:25.302Z,1.87
2019-01-13T07:39:36.064Z,1.80
2019-01-13T07:41:46.904Z,1.93
2019-01-13T07:43:57.691Z,1.77
2019-01-13T07:46:08.520Z,1.80
2019-01-13T07:48:19.333Z,2.10
2019-01-13T07:50:30.130Z,2.07
2019-01-13T07:52:40.965Z,2.60
2019-01-13T07:54:51.773Z,2.47
2019-01-13T07:57:02.794Z,2.73
2019-01-13T07:59:13.592Z,2.73
2019-01-13T08:01:24.421Z,2.70
2019-01-13T08:03:35.203Z,3.03
2019-01-13T08:05:46.008Z,3.13
2019-01-13T08:07:56.828Z,2.77
2019-01-13T08:10:49.268Z,2.73
2019-01-13T08:13:00.120Z,3.20
2019-01-13T08:15:52.562Z,2.63
2019-01-13T08:18:03.933Z,2.87
2019-01-13T08:20:56.379Z,2.67
2019-01-13T08:23:07.209Z,2.97
2019-01-13T08:25:18.213Z,3.10
2019-01-13T08:27:29.003Z,2.37
2019-01-13T08:29:39.850Z,2.20
2019-01-13T08:31:50.643Z,1.97
2019-01-13T08:34:01.570Z,2.00
2019-01-13T08:36:12.377Z,1.87
2019-01-13T08:38:23.185Z,1.53
2019-01-13T08:40:34.833Z,1.37
2019-01-13T08:43:28.541Z,1.60
2019-01-13T08:45:39.349Z,1.37
2019-01-13T08:47:50.285Z,1.73
2019-01-13T08:50:01.298Z,1.20
2019-01-13T08:52:12.108Z,1.40
2019-01-13T08:54:22.920Z,1.23
2019-01-13T08:56:33.731Z,1.40
2019-01-13T08:58:44.561Z,1.50
2019-01-13T09:00:55.358Z,1.03
2019-01-13T09:03:06.157Z,1.00
2019-01-13T09:05:17.225Z,0.93
2019-01-13T09:07:27.980Z,0.90
2019-01-13T09:09:38.816Z,0.83
2019-01-13T09:11:49.617Z,0.80
2019-01-13T09:14:00.415Z,0.77
2019-01-13T09:16:11.251Z,0.60
2019-01-13T09:18:22.087Z,0.60
2019-01-13T09:20:32.959Z,0.63
2019-01-13T09:22:43.951Z,0.60
2019-01-13T09:24:54.776Z,0.70
2019-01-13T09:27:05.702Z,0.80
2019-01-13T09:29:16.561Z,0.60
2019-01-13T09:31:27.377Z,0.50
2019-01-13T09:33:38.193Z,0.60
2019-01-13T09:35:49.013Z,0.60
2019-01-13T09:37:59.919Z,0.63
2019-01-13T09:40:38.358Z,0.50
2019-01-13T09:42:49.241Z,0.53
2019-01-13T09:45:00.052Z,0.60
2019-01-13T09:47:10.974Z,0.60
2019-01-13T09:49:21.801Z,0.50
2019-01-13T09:51:32.624Z,0.60
2019-01-13T09:53:43.430Z,0.80
2019-01-13T09:56:14.123Z,0.67
2019-01-13T09:58:25.018Z,0.60
2019-01-13T10:00:36.033Z,0.53
2019-01-13T10:02:47.046Z,0.43
2019-01-13T10:04:57.918Z,0.53
2019-01-13T10:07:08.727Z,0.33
2019-01-13T10:09:19.592Z,0.40
2019-01-13T10:11:30.478Z,0.47
2019-01-13T10:13:41.297Z,0.60
2019-01-13T10:15:52.116Z,0.80
2019-01-13T10:18:03.111Z,0.53
2019-01-13T10:20:36.439Z,0.70
2019-01-13T10:22:47.532Z,0.57
2019-01-13T10:24:58.362Z,0.77
2019-01-13T10:27:09.173Z,0.53
2019-01-13T10:29:20.018Z,0.60
2019-01-13T10:31:30.823Z,0.70
2019-01-13T10:33:41.646Z,0.90
2019-01-13T10:35:52.466Z,0.60
2019-01-13T10:38:03.402Z,1.10
2019-01-13T10:43:13.047Z,0.60
2019-01-13T10:45:23.910Z,0.60
2019-01-13T10:47:34.819Z,0.90
2019-01-13T10:49:45.662Z,0.80
2019-01-13T10:51:56.483Z,0.77
2019-01-13T10:54:09.168Z,0.83
2019-01-13T10:56:20.106Z,0.60
2019-01-13T10:58:30.901Z,0.80
2019-01-13T11:00:41.749Z,0.70
2019-01-13T11:02:52.550Z,0.70
2019-01-13T11:05:45.027Z,0.60
2019-01-13T11:07:55.927Z,0.67
2019-01-13T11:10:48.384Z,0.70
2019-01-13T11:12:59.228Z,0.97
2019-01-13T11:15:29.934Z,0.70
2019-01-13T11:17:40.744Z,0.50
2019-01-13T11:19:51.574Z,0.50
2019-01-13T11:22:02.407Z,0.50
2019-01-13T11:24:13.231Z,1.13
2019-01-13T11:26:24.061Z,1.27
2019-01-13T11:28:34.866Z,0.90
2019-01-13T11:30:45.705Z,0.60
2019-01-13T11:32:56.496Z,0.70
2019-01-13T11:35:29.090Z,0.80
2019-01-13T11:38:21.552Z,0.60
2019-01-13T11:40:32.396Z,0.63
2019-01-13T11:42:43.357Z,0.60
2019-01-13T11:44:54.169Z,0.60
2019-01-13T11:47:05.006Z,0.60
2019-01-13T11:49:15.842Z,0.53
2019-01-13T11:51:26.689Z,0.53
2019-01-13T11:53:37.495Z,0.50
2019-01-13T11:55:48.312Z,0.50
2019-01-13T11:57:59.157Z,0.60
2019-01-13T12:00:31.344Z,0.60
2019-01-13T12:02:42.301Z,0.40
2019-01-13T12:04:53.144Z,0.60
2019-01-13T12:07:04.047Z,0.80
2019-01-13T12:09:14.946Z,0.87
2019-01-13T12:11:25.758Z,1.33
2019-01-13T12:13:36.621Z,0.50
2019-01-13T12:15:47.410Z,0.80
2019-01-13T12:17:58.400Z,0.70
2019-01-13T12:20:50.862Z,0.80
2019-01-13T12:23:01.804Z,0.50
2019-01-13T12:25:54.256Z,0.53
2019-01-13T12:28:05.101Z,0.43
2019-01-13T12:30:57.536Z,0.63
2019-01-13T12:33:08.386Z,0.77
2019-01-13T12:35:19.403Z,0.77
2019-01-13T12:37:30.239Z,0.83
2019-01-13T12:39:41.166Z,0.70
2019-01-13T12:41:52.010Z,0.80
2019-01-13T12:44:03.082Z,0.90
2019-01-13T12:46:13.883Z,1.00
2019-01-13T12:48:24.692Z,0.90
2019-01-13T12:50:35.542Z,1.00
2019-01-13T12:52:46.454Z,0.90
2019-01-13T12:54:57.299Z,1.00
2019-01-13T12:57:08.110Z,0.87
2019-01-13T12:59:18.946Z,1.00
2019-01-13T13:01:29.761Z,0.70
2019-01-13T13:03:40.640Z,1.00
2019-01-13T13:05:51.494Z,1.00
2019-01-13T13:08:02.430Z,0.90
2019-01-13T13:10:54.916Z,0.90
2019-01-13T13:13:05.814Z,0.77
2019-01-13T13:15:16.807Z,0.87
2019-01-13T13:17:27.572Z,0.80
2019-01-13T13:19:38.370Z,0.83
2019-01-13T13:21:49.219Z,0.90
2019-01-13T13:24:00.032Z,0.97
2019-01-13T13:26:10.904Z,1.10
2019-01-13T13:28:21.705Z,1.10
2019-01-13T13:30:32.533Z,1.20
2019-01-13T13:32:43.459Z,1.00
2019-01-13T13:34:55.774Z,0.80
2019-01-13T13:37:07.001Z,0.87
2019-01-13T13:39:17.806Z,0.70
2019-01-13T13:41:28.699Z,1.00
2019-01-13T13:43:39.286Z,0.83
2019-01-13T13:45:50.133Z,1.00
2019-01-13T13:48:01.130Z,1.20
2019-01-13T13:50:31.814Z,0.80
2019-01-13T13:52:42.740Z,0.90
2019-01-13T13:54:53.568Z,0.70
2019-01-13T13:57:04.385Z,1.70
2019-01-13T13:59:15.286Z,0.97
2019-01-13T14:01:26.105Z,1.20
2019-01-13T14:03:37.075Z,1.00
2019-01-13T14:05:47.896Z,1.13
2019-01-13T14:07:58.805Z,1.10
2019-01-13T14:10:51.243Z,1.20
2019-01-13T14:13:43.754Z,1.57
2019-01-13T14:15:54.568Z,1.43
2019-01-13T14:18:05.433Z,1.17
2019-01-13T14:20:57.920Z,1.60
2019-01-13T14:23:08.732Z,1.67
2019-01-13T14:25:19.654Z,1.37
2019-01-13T14:27:30.624Z,1.30
2019-01-13T14:29:41.433Z,0.90
2019-01-13T14:31:52.201Z,1.00
2019-01-13T14:34:03.162Z,0.60
2019-01-13T14:36:14.009Z,0.80
2019-01-13T14:38:24.825Z,0.80
2019-01-13T14:40:35.639Z,1.00
2019-01-13T14:42:46.604Z,0.90
2019-01-13T14:44:57.505Z,0.53
2019-01-13T14:47:08.255Z,0.90
2019-01-13T14:49:19.123Z,1.00
2019-01-13T14:51:29.906Z,1.10
2019-01-13T14:53:40.752Z,0.80
2019-01-13T14:55:51.620Z,2.10
2019-01-13T14:58:44.087Z,1.00
2019-01-13T15:00:54.941Z,0.90
2019-01-13T15:03:05.782Z,1.13
2019-01-13T15:05:16.994Z,0.93
2019-01-13T15:07:27.822Z,0.90
2019-01-13T15:09:38.641Z,1.03
2019-01-13T15:11:49.515Z,0.70
2019-01-13T15:14:00.328Z,0.60
2019-01-13T15:16:11.189Z,0.70
2019-01-13T15:18:22.113Z,0.67
2019-01-13T15:20:32.953Z,0.67
2019-01-13T15:22:44.049Z,0.50
2019-01-13T15:24:54.870Z,0.53
2019-01-13T15:29:22.733Z,0.70
2019-01-13T15:31:33.557Z,0.53
2019-01-13T15:33:44.468Z,0.70
2019-01-13T15:35:55.339Z,0.60
2019-01-13T15:38:06.376Z,0.60
2019-01-13T15:40:58.912Z,0.80
2019-01-13T15:43:09.709Z,0.83
2019-01-13T15:45:20.520Z,0.73
2019-01-13T15:47:31.408Z,0.60
2019-01-13T15:49:42.229Z,0.80
2019-01-13T15:51:53.050Z,1.07
2019-01-13T15:54:03.888Z,0.60
2019-01-13T15:56:14.697Z,1.20
2019-01-13T15:58:25.610Z,0.70
2019-01-13T16:00:36.532Z,0.80
2019-01-13T16:02:47.589Z,0.80
2019-01-13T16:04:58.426Z,0.77
2019-01-13T16:07:09.240Z,0.70
2019-01-13T16:09:20.102Z,0.70
2019-01-13T16:11:31.003Z,0.57
2019-01-13T16:13:41.868Z,0.70
2019-01-13T16:15:52.668Z,0.73
2019-01-13T16:20:42.081Z,0.63
2019-01-13T16:22:52.896Z,0.80
2019-01-13T16:25:45.427Z,0.70
2019-01-13T16:27:56.336Z,0.63
2019-01-13T16:30:48.817Z,0.70
2019-01-13T16:32:59.724Z,0.83
2019-01-13T16:37:49.951Z,1.77
2019-01-13T16:40:00.821Z,0.60
2019-01-13T16:42:11.616Z,0.87
2019-01-13T16:44:22.468Z,0.50
2019-01-13T16:46:33.280Z,0.60
2019-01-13T16:48:44.098Z,0.67
2019-01-13T16:50:54.934Z,0.70
2019-01-13T16:53:06.242Z,0.60
2019-01-13T16:56:00.132Z,0.67
2019-01-13T16:58:11.084Z,0.80
2019-01-13T17:01:03.654Z,0.90
2019-01-13T17:03:14.553Z,0.67
2019-01-13T17:06:07.035Z,0.90
2019-01-13T17:08:17.853Z,1.00
2019-01-13T17:10:28.770Z,1.70
2019-01-13T17:12:39.686Z,2.30
2019-01-13T17:14:50.525Z,4.80
2019-01-13T17:17:01.525Z,1.90
2019-01-13T17:19:12.350Z,1.70
2019-01-13T17:21:23.183Z,1.30
2019-01-13T17:23:34.008Z,1.10
2019-01-13T17:25:44.873Z,0.93
2019-01-13T17:27:55.823Z,1.10
2019-01-13T17:30:48.288Z,0.90
2019-01-13T17:32:59.290Z,0.90
2019-01-13T17:35:10.215Z,1.00
2019-01-13T17:37:21.089Z,1.00
2019-01-13T17:39:31.927Z,0.97
2019-01-13T17:41:42.801Z,0.60
2019-01-13T17:43:53.622Z,0.73
2019-01-13T17:46:04.435Z,0.70
2019-01-13T17:48:15.279Z,0.83
2019-01-13T17:51:07.747Z,0.70
2019-01-13T17:53:18.583Z,0.77
2019-01-13T17:58:21.866Z,1.10
2019-01-13T18:01:14.318Z,1.70
2019-01-13T18:03:46.930Z,1.00
2019-01-13T18:05:57.778Z,1.13
2019-01-13T18:08:08.728Z,0.77
2019-01-13T18:10:19.570Z,0.90
2019-01-13T18:12:30.402Z,1.10
2019-01-13T18:14:41.349Z,1.00
2019-01-13T18:16:52.154Z,0.80
2019-01-13T18:19:03.076Z,0.90
2019-01-13T18:21:13.855Z,0.87
2019-01-13T18:23:24.742Z,1.40
2019-01-13T18:25:35.571Z,0.90
2019-01-13T18:27:46.403Z,1.10
2019-01-13T18:29:57.330Z,1.13
2019-01-13T18:32:08.167Z,1.03
2019-01-13T18:34:19.086Z,0.80
2019-01-13T18:36:29.853Z,0.70
2019-01-13T18:38:40.679Z,0.67
2019-01-13T18:40:51.649Z,0.80
2019-01-13T18:43:02.600Z,0.50
2019-01-13T18:45:55.184Z,0.70
2019-01-13T18:48:06.146Z,0.30
2019-01-13T18:50:59.606Z,0.40
2019-01-13T18:53:32.217Z,0.47
2019-01-13T18:55:43.303Z,0.40
2019-01-13T18:57:54.143Z,0.40
2019-01-13T19:00:46.695Z,0.30
2019-01-13T19:02:57.520Z,0.30
2019-01-13T19:05:50.002Z,0.40
2019-01-13T19:08:00.924Z,0.30
2019-01-13T19:10:51.514Z,0.20
2019-01-13T19:13:42.058Z,0.33
2019-01-13T19:16:34.759Z,0.30
2019-01-13T19:18:45.729Z,0.27
2019-01-13T19:20:56.540Z,0.37
2019-01-13T19:23:07.486Z,0.23
2019-01-13T19:25:18.405Z,0.20
2019-01-13T19:27:29.238Z,0.30
2019-01-13T19:29:40.041Z,0.40
2019-01-13T19:31:50.937Z,0.30
2019-01-13T19:34:01.785Z,0.30
2019-01-13T19:36:12.582Z,0.40
2019-01-13T19:38:23.499Z,0.30
2019-01-13T19:40:34.308Z,0.30
2019-01-13T19:42:45.437Z,0.30
2019-01-13T19:44:56.256Z,0.20
2019-01-13T19:47:07.180Z,0.20
2019-01-13T19:49:18.047Z,0.20
2019-01-13T19:51:28.890Z,0.20
2019-01-13T19:53:39.828Z,0.27
2019-01-13T19:55:50.649Z,0.23
2019-01-13T19:58:01.657Z,0.20
2019-01-13T20:00:54.112Z,0.30
2019-01-13T20:03:04.980Z,0.37
2019-01-13T20:05:15.882Z,0.40
2019-01-13T20:07:26.798Z,0.40
2019-01-13T20:09:37.753Z,0.40
2019-01-13T20:11:48.653Z,0.40
2019-01-13T20:13:59.481Z,0.47
2019-01-13T20:16:10.318Z,0.53
2019-01-13T20:18:21.224Z,0.43
2019-01-13T20:20:32.053Z,0.87
2019-01-13T20:22:42.846Z,0.57
2019-01-13T20:24:53.763Z,0.40
2019-01-13T20:27:04.617Z,0.70
2019-01-13T20:29:15.470Z,0.70
2019-01-13T20:31:26.283Z,0.60
2019-01-13T20:33:37.243Z,0.50
2019-01-13T20:35:48.073Z,0.77
2019-01-13T20:37:58.902Z,0.70
2019-01-13T20:40:51.438Z,0.60
2019-01-13T20:43:02.359Z,0.83
2019-01-13T20:45:54.875Z,0.50
2019-01-13T20:48:05.785Z,0.90
2019-01-13T20:50:16.660Z,0.90
2019-01-13T20:52:27.454Z,1.17
2019-01-13T20:54:38.297Z,1.20
2019-01-13T20:56:49.158Z,1.30
2019-01-13T20:58:59.965Z,1.57
2019-01-13T21:01:11.011Z,0.70
2019-01-13T21:03:21.841Z,0.73
2019-01-13T21:05:32.679Z,0.70
2019-01-13T21:07:43.783Z,0.87
2019-01-13T21:09:54.706Z,0.90
2019-01-13T21:12:05.555Z,1.03
2019-01-13T21:14:16.351Z,0.70
2019-01-13T21:16:27.213Z,1.00
2019-01-13T21:18:38.132Z,1.10
2019-01-13T21:20:49.159Z,0.77
2019-01-13T21:22:59.972Z,1.10
2019-01-13T21:25:32.566Z,0.90
2019-01-13T21:28:25.051Z,0.77
2019-01-13T21:30:35.876Z,1.10
2019-01-13T21:32:46.697Z,1.23
2019-01-13T21:34:57.613Z,1.07
2019-01-13T21:37:08.470Z,0.90
2019-01-13T21:39:19.292Z,1.20
2019-01-13T21:41:30.120Z,0.90
2019-01-13T21:43:40.946Z,1.07
2019-01-13T21:45:51.764Z,0.90
2019-01-13T21:48:02.709Z,1.27
2019-01-13T21:50:55.181Z,1.30
2019-01-13T21:53:06.008Z,1.40
2019-01-13T21:55:58.497Z,1.30
2019-01-13T21:58:09.345Z,1.40
2019-01-13T22:00:40.018Z,1.77
2019-01-13T22:02:50.962Z,1.47
2019-01-13T22:05:01.876Z,1.60
2019-01-13T22:07:12.689Z,1.60
2019-01-13T22:09:23.514Z,2.07
2019-01-13T22:11:34.428Z,1.90
2019-01-13T22:13:45.243Z,2.10
2019-01-13T22:15:56.054Z,1.90
2019-01-13T22:18:07.049Z,2.70
2019-01-13T22:20:59.523Z,2.07
2019-01-13T22:23:10.340Z,2.20
2019-01-13T22:25:21.248Z,2.80
2019-01-13T22:27:32.054Z,2.60
2019-01-13T22:29:42.879Z,2.30
2019-01-13T22:31:53.668Z,2.60
2019-01-13T22:34:04.476Z,2.50
2019-01-13T22:36:15.311Z,2.40
2019-01-13T22:38:26.133Z,2.47
2019-01-13T22:40:36.978Z,2.70
2019-01-13T22:42:47.788Z,2.37
2019-01-13T22:44:58.621Z,2.60
2019-01-13T22:47:09.445Z,2.50
2019-01-13T22:49:20.262Z,2.43
2019-01-13T22:51:31.077Z,2.53
2019-01-13T22:53:41.905Z,2.20
2019-01-13T22:55:52.714Z,2.53
2019-01-13T22:58:03.520Z,2.33
2019-01-13T23:00:56.019Z,2.80
2019-01-13T23:03:06.828Z,2.20
2019-01-13T23:05:17.754Z,2.00
2019-01-13T23:07:28.656Z,0.93
2019-01-13T23:09:39.453Z,1.10
2019-01-13T23:11:50.307Z,1.00
2019-01-13T23:14:01.245Z,0.80
2019-01-13T23:16:12.110Z,1.30
2019-01-13T23:18:22.919Z,1.60
2019-01-13T23:20:33.800Z,1.30
2019-01-13T23:22:44.650Z,1.57
2019-01-13T23:24:55.440Z,1.40
2019-01-13T23:27:06.358Z,1.80
2019-01-13T23:29:17.269Z,1.20
2019-01-13T23:31:28.197Z,1.03
2019-01-13T23:33:38.995Z,0.97
2019-01-13T23:35:50.002Z,1.20
2019-01-13T23:38:00.832Z,1.10
2019-01-13T23:40:11.837Z,1.40
2019-01-13T23:42:22.762Z,1.10
2019-01-13T23:44:33.567Z,1.10
2019-01-13T23:46:44.462Z,1.33
2019-01-13T23:51:14.637Z,1.17
2019-01-13T23:53:25.518Z,1.20
2019-01-13T23:55:36.302Z,0.93
2019-01-13T23:57:47.114Z,1.00
2019-01-13T23:59:57.937Z,1.10
